Time;durP1;ratioP1;P1;durP2;ratioP2;P2;SDS_P1;SDS_P2;PMS_P1;PMS_P2;Temp;Humidity;BMP_temperature;BMP_pressure;BME280_temperature;BME280_humidity;BME280_pressure;Samples;Min_cycle;Max_cycle;Signal;HPM_P1;HPM_P2
2023/05/24 00:03:07;;;;;;;12.80;11.20;;;;;;;16.52;66.75;99431.18;220379;1256;140631;-71
2023/05/24 00:08:14;;;;;;;12.20;10.90;;;;;;;16.43;66.90;99428.71;220507;1256;140365;-71
2023/05/24 00:13:19;;;;;;;14.60;10.80;;;;;;;16.40;66.86;99433.73;220461;1256;141808;-71
2023/05/24 00:18:25;;;;;;;15.40;10.50;;;;;;;16.37;66.91;99435.27;220286;1256;140007;-72
2023/05/24 00:23:30;;;;;;;16.00;11.20;;;;;;;16.33;67.05;99429.80;220008;1255;141229;-71
2023/05/24 00:28:36;;;;;;;15.10;11.00;;;;;;;16.28;67.12;99429.95;218248;1255;140560;-67
2023/05/24 00:33:41;;;;;;;14.00;11.20;;;;;;;16.23;67.44;99427.29;219875;1255;141518;-72
2023/05/24 00:38:46;;;;;;;12.00;10.60;;;;;;;16.16;67.56;99422.67;218772;1255;141057;-70
2023/05/24 00:43:50;;;;;;;12.00;10.80;;;;;;;16.09;67.63;99425.08;219567;1256;141207;-70
2023/05/24 00:48:56;;;;;;;12.80;11.00;;;;;;;16.00;67.74;99427.77;217995;1256;140832;-70
2023/05/24 00:54:01;;;;;;;21.00;11.50;;;;;;;15.91;67.77;99427.38;218139;1257;141058;-71
2023/05/24 00:59:05;;;;;;;14.70;12.30;;;;;;;15.79;67.92;99430.51;218599;1256;141320;-71
2023/05/24 01:04:11;;;;;;;21.90;12.40;;;;;;;15.66;68.01;99434.58;217729;1256;140449;-70
2023/05/24 01:09:32;;;;;;;15.10;11.20;;;;;;;15.55;68.31;99435.27;218655;1256;140839;-71
2023/05/24 01:15:16;;;;;;;16.80;11.90;;;;;;;15.45;68.43;99434.48;218090;1256;140532;-70
2023/05/24 01:20:22;;;;;;;13.00;10.40;;;;;;;15.31;68.66;99434.79;218592;1257;140265;-71
2023/05/24 01:25:53;;;;;;;15.50;11.40;;;;;;;15.19;68.75;99433.80;219181;1256;140225;-70
2023/05/24 01:30:59;;;;;;;15.20;12.40;;;;;;;15.03;68.84;99433.34;218835;1255;140627;-70
2023/05/24 01:36:05;;;;;;;15.00;13.40;;;;;;;14.93;69.29;99435.95;219163;1257;141574;-70
2023/05/24 01:41:18;;;;;;;18.00;14.30;;;;;;;14.86;69.65;99440.61;219387;1256;140982;-71
2023/05/24 01:46:36;;;;;;;24.60;14.60;;;;;;;14.77;70.07;99441.73;219242;1256;140319;-70
2023/05/24 01:52:04;;;;;;;16.50;14.20;;;;;;;14.72;70.28;99452.84;220479;1256;140461;-70
2023/05/24 01:57:10;;;;;;;16.40;14.30;;;;;;;14.65;70.42;99460.04;220370;1257;140954;-70
2023/05/24 02:02:16;;;;;;;16.60;13.90;;;;;;;14.57;70.46;99461.61;219853;1255;140975;-71
2023/05/24 02:07:20;;;;;;;16.00;14.40;;;;;;;14.50;70.76;99468.30;220149;1256;141002;-71
2023/05/24 02:12:24;;;;;;;15.00;13.30;;;;;;;14.43;71.14;99472.24;220555;1256;140241;-71
2023/05/24 02:17:31;;;;;;;15.40;13.80;;;;;;;14.38;71.30;99469.75;219549;1256;141404;-72
2023/05/24 02:22:36;;;;;;;15.90;14.20;;;;;;;14.34;71.33;99476.30;219507;1256;141848;-70
2023/05/24 02:27:45;;;;;;;16.90;15.20;;;;;;;14.27;71.71;99478.58;218679;1256;141050;-72
2023/05/24 02:32:52;;;;;;;23.30;16.10;;;;;;;14.22;71.80;99484.63;218396;1257;141576;-72
2023/05/24 02:37:57;;;;;;;16.60;13.40;;;;;;;14.11;71.76;99482.98;218054;1258;140918;-71
2023/05/24 02:43:03;;;;;;;20.80;15.70;;;;;;;14.01;71.69;99484.73;218609;1259;140706;-71
2023/05/24 02:48:08;;;;;;;15.70;14.00;;;;;;;13.87;71.69;99484.19;218312;1255;140085;-71
2023/05/24 02:53:14;;;;;;;19.70;14.90;;;;;;;13.74;72.10;99490.95;218677;1257;141022;-71
2023/05/24 02:58:20;;;;;;;21.60;17.40;;;;;;;13.68;72.12;99492.64;218271;1256;141812;-71
2023/05/24 03:03:25;;;;;;;22.80;17.60;;;;;;;13.70;73.10;99498.01;217598;1257;140553;-71
2023/05/24 03:08:30;;;;;;;21.10;17.60;;;;;;;13.76;73.57;99503.27;217975;1257;140302;-71
2023/05/24 03:13:35;;;;;;;21.70;17.80;;;;;;;13.87;73.82;99504.98;217813;1259;141293;-70
2023/05/24 03:18:39;;;;;;;21.50;18.70;;;;;;;13.98;74.17;99502.41;218582;1257;140860;-71
2023/05/24 03:23:43;;;;;;;21.00;17.00;;;;;;;14.12;74.19;99508.66;218098;1256;509491;-71
2023/05/24 03:28:50;;;;;;;25.10;19.30;;;;;;;14.27;74.35;99515.37;218865;1256;140455;-71
2023/05/24 03:33:54;;;;;;;24.00;18.80;;;;;;;14.41;74.59;99517.61;218885;1256;140808;-71
2023/05/24 03:38:58;;;;;;;20.60;16.90;;;;;;;14.58;74.77;99520.19;218653;1257;140164;-67
2023/05/24 03:44:04;;;;;;;19.20;17.00;;;;;;;14.72;74.76;99517.35;219653;1256;140401;-72
2023/05/24 03:49:10;;;;;;;21.10;16.90;;;;;;;14.89;74.80;99518.34;220226;1256;141284;-72
2023/05/24 03:54:16;;;;;;;19.70;16.40;;;;;;;15.11;74.64;99524.77;220560;1256;140277;-73
2023/05/24 03:59:22;;;;;;;21.30;19.00;;;;;;;15.29;74.54;99530.55;220298;1256;141178;-72
2023/05/24 04:04:27;;;;;;;22.10;16.10;;;;;;;15.49;74.86;99540.68;220509;1256;140884;-72
2023/05/24 04:09:32;;;;;;;23.10;19.40;;;;;;;15.81;74.44;99541.23;217944;1257;140113;-73
2023/05/24 04:14:37;;;;;;;24.30;18.60;;;;;;;16.18;74.32;99549.48;218848;1256;139450;-70
2023/05/24 04:19:42;;;;;;;23.40;19.90;;;;;;;16.67;74.06;99556.70;218741;1256;141623;-71
2023/05/24 04:24:46;;;;;;;21.30;18.80;;;;;;;17.24;73.27;99552.08;218945;1256;140847;-70
2023/05/24 04:29:53;;;;;;;21.60;18.80;;;;;;;17.63;72.31;99552.80;218029;1257;140730;-69
2023/05/24 04:34:57;;;;;;;21.50;19.10;;;;;;;17.97;71.52;99563.02;218588;1256;141679;-68
2023/05/24 04:40:04;;;;;;;20.70;18.50;;;;;;;17.99;70.76;99566.24;218480;1260;141242;-69
2023/05/24 04:45:09;;;;;;;21.30;19.10;;;;;;;17.92;70.76;99576.99;217857;1257;140805;-72
2023/05/24 04:50:14;;;;;;;18.00;16.30;;;;;;;17.95;70.51;99582.75;217465;1260;139913;-69
2023/05/24 04:55:21;;;;;;;23.40;17.10;;;;;;;17.97;70.36;99591.84;217993;1257;141673;-71
2023/05/24 05:00:26;;;;;;;17.60;15.50;;;;;;;18.00;69.84;99594.06;218020;1257;141130;-72
2023/05/24 05:05:30;;;;;;;21.10;17.30;;;;;;;18.20;69.59;99596.64;218375;1257;141885;-70
2023/05/24 05:10:35;;;;;;;22.80;15.70;;;;;;;18.45;69.07;99606.09;218353;1257;140220;-69
2023/05/24 05:15:40;;;;;;;16.70;14.90;;;;;;;18.64;68.38;99610.36;218134;1257;141946;-72
2023/05/24 05:20:45;;;;;;;17.90;16.10;;;;;;;18.53;68.07;99618.25;218772;1256;140359;-68
2023/05/24 05:25:51;;;;;;;15.80;14.40;;;;;;;18.33;67.89;99625.07;218615;1256;140693;-71
2023/05/24 05:30:57;;;;;;;17.10;13.50;;;;;;;18.07;67.78;99627.32;218335;1260;140623;-69
2023/05/24 05:36:02;;;;;;;13.60;12.30;;;;;;;17.95;67.90;99630.38;218685;1260;143767;-67
2023/05/24 05:41:07;;;;;;;17.90;15.20;;;;;;;17.78;67.62;99637.21;219915;1257;141950;-68
2023/05/24 05:46:12;;;;;;;15.90;13.80;;;;;;;17.69;67.83;99634.35;219998;1256;141187;-70
2023/05/24 05:51:15;;;;;;;15.80;12.00;;;;;;;17.68;67.56;99642.49;220225;1256;139840;-70
2023/05/24 05:56:21;;;;;;;13.40;11.70;;;;;;;17.61;67.49;99643.92;219693;1259;141337;-69
2023/05/24 06:01:26;;;;;;;13.80;11.10;;;;;;;17.66;67.68;99650.69;219505;1256;140595;-71
2023/05/24 06:06:32;;;;;;;15.40;13.10;;;;;;;17.80;67.65;99657.89;219247;1257;141492;-75
2023/05/24 06:11:38;;;;;;;14.50;13.20;;;;;;;17.86;67.35;99659.73;218736;1256;141349;-73
2023/05/24 06:16:44;;;;;;;15.50;11.90;;;;;;;17.86;67.04;99657.46;218550;1256;143827;-71
2023/05/24 06:21:50;;;;;;;19.30;13.10;;;;;;;17.97;67.02;99667.63;217785;1256;141133;-69
2023/05/24 06:26:56;;;;;;;13.90;12.30;;;;;;;18.01;66.82;99673.02;218594;1257;141639;-70
2023/05/24 06:32:02;;;;;;;14.20;12.10;;;;;;;18.06;66.93;99681.10;217882;1256;141143;-69
2023/05/24 06:37:09;;;;;;;14.10;12.80;;;;;;;18.13;66.94;99692.05;218046;1256;140303;-69
2023/05/24 06:42:14;;;;;;;13.60;12.20;;;;;;;18.13;66.73;99698.30;218393;1257;141354;-68
2023/05/24 06:47:18;;;;;;;14.30;12.90;;;;;;;18.10;66.50;99711.33;218694;1257;140851;-69
2023/05/24 06:52:22;;;;;;;12.80;11.50;;;;;;;18.13;66.61;99714.75;217701;1261;140686;-68
2023/05/24 06:57:26;;;;;;;11.60;10.00;;;;;;;18.27;66.50;99722.89;218572;1256;139914;-68
2023/05/24 07:02:31;;;;;;;13.80;12.50;;;;;;;18.32;66.12;99734.39;218526;1257;141188;-68
2023/05/24 07:07:42;;;;;;;14.70;13.20;;;;;;;18.06;65.55;99744.94;217833;1256;141286;-68
2023/05/24 07:12:47;;;;;;;18.30;14.30;;;;;;;17.87;65.64;99751.89;219537;1257;141594;-71
2023/05/24 07:17:53;;;;;;;13.80;12.20;;;;;;;17.85;65.85;99759.61;218235;1256;140743;-69
2023/05/24 07:22:57;;;;;;;13.10;10.70;;;;;;;17.82;65.59;99772.31;218785;1257;141164;-67
2023/05/24 07:28:02;;;;;;;7.50;6.80;;;;;;;17.96;65.73;99776.25;218959;1257;143960;-69
2023/05/24 07:33:06;;;;;;;12.00;10.80;;;;;;;18.13;65.21;99784.47;220032;1256;140417;-68
2023/05/24 07:38:11;;;;;;;12.60;10.30;;;;;;;18.30;64.92;99785.14;219026;1257;141280;-68
2023/05/24 07:43:15;;;;;;;17.40;10.20;;;;;;;18.43;64.47;99790.02;219845;1257;141804;-69
2023/05/24 07:48:19;;;;;;;11.70;9.50;;;;;;;18.59;64.14;99796.09;220283;1257;140725;-69
2023/05/24 07:53:23;;;;;;;14.90;12.10;;;;;;;18.69;63.79;99803.94;220379;1257;140399;-69
2023/05/24 07:58:28;;;;;;;11.70;10.50;;;;;;;18.61;63.41;99807.64;220198;1256;140822;-70
2023/05/24 08:03:33;;;;;;;11.50;10.30;;;;;;;18.57;63.43;99809.88;219308;1257;140610;-68
2023/05/24 08:08:39;;;;;;;12.20;10.70;;;;;;;18.64;63.53;99816.46;219110;1257;140400;-74
2023/05/24 08:13:45;;;;;;;10.30;9.10;;;;;;;18.98;63.45;99818.63;218841;1260;140565;-66
2023/05/24 08:18:51;;;;;;;11.90;10.60;;;;;;;19.28;63.27;99824.21;218879;1257;140872;-68
2023/05/24 08:23:59;;;;;;;9.90;9.00;;;;;;;19.58;62.85;99833.45;218590;1257;140405;-68
2023/05/24 08:29:05;;;;;;;18.10;11.40;;;;;;;19.62;62.08;99842.05;218659;1257;140753;-69
2023/05/24 08:34:11;;;;;;;10.00;9.00;;;;;;;19.50;61.62;99846.22;218818;1257;140112;-69
2023/05/24 08:39:16;;;;;;;8.30;7.60;;;;;;;19.50;61.82;99849.95;217876;1257;139442;-68
2023/05/24 08:44:22;;;;;;;9.30;8.10;;;;;;;19.42;61.80;99859.54;218922;1257;139884;-69
2023/05/24 08:49:28;;;;;;;;;;;;;;;19.27;61.43;99871.03;218732;1257;139405;-72
2023/05/24 08:54:37;;;;;;;10.70;7.30;;;;;;;18.91;61.15;99874.99;218952;1260;126581;-69
2023/05/24 08:59:42;;;;;;;8.80;7.60;;;;;;;18.67;61.26;99884.15;217663;1258;140182;-70
2023/05/24 09:04:49;;;;;;;10.30;9.00;;;;;;;18.60;61.71;99884.76;218287;1257;139612;-68
2023/05/24 09:09:59;;;;;;;10.00;8.20;;;;;;;18.53;62.07;99888.02;219114;1257;139751;-71
2023/05/24 09:15:05;;;;;;;7.00;6.30;;;;;;;18.48;62.29;99889.26;218577;1257;141667;-71
2023/05/24 09:20:11;;;;;;;;;;;;;;;18.44;62.18;99897.87;219533;1256;139826;-70
2023/05/24 09:25:19;;;;;;;10.40;8.70;;;;;;;18.16;62.25;99910.33;218248;1258;126505;-69
2023/05/24 09:30:25;;;;;;;9.40;8.50;;;;;;;17.87;62.38;99911.86;219326;1260;140837;-68
2023/05/24 09:35:30;;;;;;;11.40;9.20;;;;;;;17.76;62.89;99912.23;218027;1257;141359;-69
2023/05/24 09:40:37;;;;;;;11.80;9.20;;;;;;;17.81;63.44;99911.13;220349;1256;139960;-67
2023/05/24 09:45:46;;;;;;;11.50;9.20;;;;;;;17.98;63.52;99916.45;218263;1257;140213;-68
2023/05/24 09:51:04;;;;;;;12.20;8.50;;;;;;;18.02;63.53;99919.19;220424;1256;140027;-70
2023/05/24 09:56:10;;;;;;;9.20;7.80;;;;;;;18.04;63.28;99920.56;219383;1257;140380;-70
2023/05/24 10:01:16;;;;;;;8.30;7.50;;;;;;;18.08;63.28;99924.52;220277;1257;139823;-70
2023/05/24 10:06:21;;;;;;;9.10;8.10;;;;;;;18.10;63.28;99925.85;220219;1257;141135;-69
2023/05/24 10:11:27;;;;;;;9.40;7.60;;;;;;;18.15;62.96;99929.92;219245;1260;139889;-70
2023/05/24 10:16:32;;;;;;;7.50;6.10;;;;;;;18.22;63.18;99936.63;220046;1256;139611;-69
2023/05/24 10:21:41;;;;;;;10.20;6.60;;;;;;;18.21;62.87;99944.79;218489;1257;140310;-68
2023/05/24 10:26:48;;;;;;;7.70;7.00;;;;;;;18.30;62.91;99951.42;218779;1260;140997;-71
2023/05/24 10:31:53;;;;;;;8.70;6.60;;;;;;;18.44;62.91;99954.02;219124;1260;139859;-71
2023/05/24 10:37:01;;;;;;;7.30;6.60;;;;;;;18.44;62.61;99961.35;218729;1256;140239;-68
2023/05/24 10:42:06;;;;;;;11.40;7.50;;;;;;;18.33;62.46;99964.94;218126;1260;139899;-72
2023/05/24 10:47:14;;;;;;;11.90;8.30;;;;;;;18.37;62.73;99973.92;217589;1257;139886;-69
2023/05/24 10:52:18;;;;;;;10.30;9.00;;;;;;;18.44;62.43;99982.78;217631;1260;141321;-68
2023/05/24 10:57:26;;;;;;;10.10;7.90;;;;;;;18.36;62.47;99983.54;217978;1261;141175;-67
2023/05/24 11:02:34;;;;;;;8.70;7.00;;;;;;;18.37;62.45;99987.80;217923;1260;140963;-69
2023/05/24 11:07:42;;;;;;;9.30;8.30;;;;;;;18.34;62.49;99993.27;217638;1257;139961;-67
2023/05/24 11:12:58;;;;;;;9.30;8.10;;;;;;;18.26;62.25;99998.19;218771;1260;140105;-68
2023/05/24 11:18:14;;;;;;;11.20;9.50;;;;;;;18.36;62.27;100002.21;218175;1260;140250;-67
2023/05/24 11:23:19;;;;;;;12.10;10.00;;;;;;;18.44;62.34;100001.73;218857;1260;141401;-67
2023/05/24 11:28:24;;;;;;;9.70;8.80;;;;;;;18.28;62.11;100002.80;218864;1260;140337;-67
2023/05/24 11:33:29;;;;;;;7.20;5.90;;;;;;;18.03;62.21;100008.98;218800;1260;140413;-72
2023/05/24 11:38:35;;;;;;;9.50;8.60;;;;;;;17.89;62.27;100007.75;219448;1256;140694;-68
2023/05/24 11:43:40;;;;;;;10.10;9.10;;;;;;;17.87;62.55;100002.48;219298;1256;140291;-67
2023/05/24 11:48:56;;;;;;;9.70;8.70;;;;;;;17.85;62.46;100003.55;220230;1260;140147;-68
2023/05/24 11:54:00;;;;;;;9.80;8.80;;;;;;;17.92;62.54;100006.07;219825;1260;140077;-68
2023/05/24 11:59:18;;;;;;;19.80;10.80;;;;;;;18.07;62.84;100011.92;220430;1257;140663;-68
2023/05/24 12:04:38;;;;;;;11.20;10.10;;;;;;;18.01;62.78;100013.48;220224;1256;140907;-71
2023/05/24 12:09:43;;;;;;;13.30;10.80;;;;;;;17.79;62.67;100019.92;218604;1257;140633;-71
2023/05/24 12:14:48;;;;;;;9.00;8.10;;;;;;;17.69;62.96;100020.40;218653;1262;142051;-71
2023/05/24 12:19:55;;;;;;;9.50;8.50;;;;;;;17.58;62.95;100027.63;218311;1257;140120;-71
2023/05/24 12:25:02;;;;;;;11.00;9.90;;;;;;;17.35;63.26;100032.58;218797;1257;139845;-72
2023/05/24 12:30:08;;;;;;;10.70;9.60;;;;;;;17.24;63.55;100037.80;217421;1261;140814;-71
2023/05/24 12:35:16;;;;;;;12.00;10.50;;;;;;;17.21;63.87;100042.88;217784;1258;141352;-71
2023/05/24 12:40:22;;;;;;;25.80;13.20;;;;;;;17.11;64.07;100046.66;218575;1260;141151;-70
2023/05/24 12:45:27;;;;;;;13.40;11.00;;;;;;;17.14;64.20;100047.13;217574;1261;140254;-72
2023/05/24 12:50:33;;;;;;;13.20;10.10;;;;;;;17.23;64.26;100041.73;217814;1257;142273;-72
2023/05/24 12:55:39;;;;;;;11.70;10.30;;;;;;;17.35;64.47;100040.92;217948;1260;140500;-72
2023/05/24 13:00:48;;;;;;;11.00;8.90;;;;;;;17.56;64.20;100037.98;218343;1260;141822;-70
2023/05/24 13:05:54;;;;;;;10.10;8.70;;;;;;;17.64;63.90;100034.36;217604;1257;141107;-71
2023/05/24 13:10:59;;;;;;;8.10;7.40;;;;;;;17.64;63.68;100038.67;218573;1257;140460;-71
2023/05/24 13:16:06;;;;;;;11.10;9.10;;;;;;;17.62;63.69;100042.43;218891;1260;141651;-72
2023/05/24 13:21:12;;;;;;;;;;;;;;;17.56;63.60;100040.77;217671;1260;140271;-72
2023/05/24 13:26:22;;;;;;;11.40;8.80;;;;;;;17.44;63.76;100032.43;218230;1257;129075;-71
2023/05/24 13:31:27;;;;;;;8.10;7.40;;;;;;;17.53;63.80;100034.20;217766;1260;140463;-71
2023/05/24 13:36:37;;;;;;;7.80;7.00;;;;;;;17.67;63.99;100035.34;219213;1257;140417;-71
2023/05/24 13:41:42;;;;;;;7.80;7.10;;;;;;;17.73;63.68;100034.02;219410;1257;139781;-71
2023/05/24 13:46:47;;;;;;;8.40;7.60;;;;;;;17.64;63.33;100033.81;219310;1257;140876;-68
2023/05/24 13:51:52;;;;;;;8.20;7.20;;;;;;;17.61;63.46;100037.53;220011;1256;140393;-72
2023/05/24 13:57:02;;;;;;;7.80;7.10;;;;;;;17.66;63.28;100038.04;220223;1257;140257;-74
2023/05/24 14:02:07;;;;;;;10.50;8.20;;;;;;;17.70;63.13;100036.24;218447;1257;140878;-72
2023/05/24 14:07:14;;;;;;;9.50;8.70;;;;;;;17.71;62.83;100041.64;219622;1256;140967;-71
2023/05/24 14:12:20;;;;;;;6.90;6.30;;;;;;;17.68;62.82;100045.04;218199;1257;140159;-72
2023/05/24 14:17:27;;;;;;;7.30;6.60;;;;;;;17.65;62.89;100041.43;218501;1257;143487;-71
2023/05/24 14:22:31;;;;;;;6.50;6.00;;;;;;;17.69;63.10;100045.70;218625;1258;139797;-72
2023/05/24 14:27:37;;;;;;;7.90;6.40;;;;;;;17.71;62.96;100048.01;217536;1257;140335;-66
2023/05/24 14:32:42;;;;;;;7.40;6.80;;;;;;;17.69;62.95;100049.20;218140;1256;141051;-67
2023/05/24 14:37:47;;;;;;;8.70;7.60;;;;;;;17.58;62.61;100054.04;217953;1257;140697;-67
2023/05/24 14:42:55;;;;;;;7.80;7.10;;;;;;;17.46;62.71;100060.41;217895;1257;140013;-66
2023/05/24 14:48:01;;;;;;;8.10;7.40;;;;;;;17.37;62.88;100059.14;218598;1256;139963;-66
2023/05/24 14:53:10;;;;;;;7.90;7.10;;;;;;;17.41;62.91;100059.84;218470;1257;140955;-70
2023/05/24 14:58:26;;;;;;;7.70;7.00;;;;;;;17.42;63.08;100061.45;218714;1256;141268;-70
2023/05/24 15:03:30;;;;;;;7.90;7.10;;;;;;;17.44;63.02;100069.58;218009;1260;141319;-70
2023/05/24 15:08:39;;;;;;;11.40;8.00;;;;;;;17.36;62.83;100066.26;217453;1257;140608;-66
2023/05/24 15:13:57;;;;;;;7.50;6.90;;;;;;;17.23;62.77;100061.63;218083;1258;140442;-71
2023/05/24 15:19:03;;;;;;;7.60;6.90;;;;;;;17.12;62.92;100068.41;217204;1260;139713;-68
2023/05/24 15:24:08;;;;;;;9.20;7.80;;;;;;;17.03;63.14;100064.43;218040;1257;1303040;-70
2023/05/24 15:29:15;;;;;;;9.20;8.00;;;;;;;17.01;63.34;100066.59;217820;1257;141025;-69
2023/05/24 15:34:20;;;;;;;10.40;9.00;;;;;;;17.02;63.42;100065.36;219490;1257;142459;-66
2023/05/24 15:39:38;;;;;;;9.70;8.90;;;;;;;16.94;63.30;100066.47;218761;1257;141207;-69
2023/05/24 15:44:45;;;;;;;10.00;8.80;;;;;;;16.89;63.23;100063.34;219531;1257;140511;-69
2023/05/24 15:49:57;;;;;;;9.50;8.60;;;;;;;16.78;63.44;100059.20;220050;1257;141598;-68
2023/05/24 15:55:13;;;;;;;9.70;8.00;;;;;;;16.75;63.75;100061.45;220118;1257;140315;-69
2023/05/24 16:00:20;;;;;;;10.30;9.50;;;;;;;16.79;63.82;100065.50;218244;1257;140172;-65
2023/05/24 16:05:27;;;;;;;;;;;;;;;16.77;63.67;100072.60;218078;1257;140265;-68
2023/05/24 16:10:31;;;;;;;10.50;7.60;;;;;;;16.65;63.85;100072.98;219295;1256;126605;-68
2023/05/24 16:15:40;;;;;;;12.50;10.30;;;;;;;16.60;63.88;100078.35;217421;1258;141215;-66
2023/05/24 16:20:48;;;;;;;13.50;10.10;;;;;;;16.51;63.90;100083.70;218480;1256;142998;-67
2023/05/24 16:25:53;;;;;;;;;;;;;;;16.50;64.07;100090.01;217746;1257;141240;-68
2023/05/24 16:30:59;;;;;;;10.10;8.80;;;;;;;16.37;64.33;100094.80;217855;1257;129319;-68
2023/05/24 16:36:03;;;;;;;13.30;10.20;;;;;;;16.21;64.54;100100.39;218848;1256;140336;-70
2023/05/24 16:41:09;;;;;;;10.60;9.00;;;;;;;16.12;64.73;100108.38;217827;1256;141043;-70
2023/05/24 16:46:16;;;;;;;12.10;8.80;;;;;;;16.08;64.97;100112.23;218216;1256;142300;-69
2023/05/24 16:51:22;;;;;;;10.90;9.00;;;;;;;15.94;64.98;100125.48;217907;1257;140144;-67
2023/05/24 16:56:27;;;;;;;9.20;7.60;;;;;;;15.81;65.22;100133.59;218081;1256;140074;-68
2023/05/24 17:01:32;;;;;;;10.30;9.20;;;;;;;15.67;65.43;100134.17;217387;1260;162287;-71
2023/05/24 17:06:37;;;;;;;11.90;9.50;;;;;;;15.59;65.88;100134.63;218140;1257;140119;-69
2023/05/24 17:11:43;;;;;;;9.40;8.40;;;;;;;15.58;66.11;100135.42;218787;1257;140276;-74
2023/05/24 17:16:49;;;;;;;13.70;9.20;;;;;;;15.54;66.12;100138.54;218830;1260;140417;-67
2023/05/24 17:21:54;;;;;;;9.20;8.30;;;;;;;15.49;66.36;100138.39;218150;1257;142522;-72
2023/05/24 17:27:01;;;;;;;11.80;10.50;;;;;;;15.41;66.43;100147.70;217680;1257;140008;-72
2023/05/24 17:32:10;;;;;;;11.90;10.00;;;;;;;15.30;66.68;100153.80;218755;1256;141220;-74
2023/05/24 17:37:18;;;;;;;12.60;9.00;;;;;;;15.19;66.84;100165.90;217651;1260;140850;-72
2023/05/24 17:42:30;;;;;;;15.50;8.90;;;;;;;15.05;67.03;100175.74;218586;1257;140907;-72
2023/05/24 17:47:36;;;;;;;11.30;9.10;;;;;;;14.97;67.21;100180.29;220204;1259;142589;-72
2023/05/24 17:52:41;;;;;;;13.00;9.60;;;;;;;14.89;67.33;100180.73;220489;1255;141976;-73
2023/05/24 17:57:47;;;;;;;10.60;8.80;;;;;;;14.83;67.52;100178.20;217725;1256;140830;-72
2023/05/24 18:02:52;;;;;;;9.70;8.70;;;;;;;14.79;67.93;100177.39;219800;1256;141752;-71
2023/05/24 18:07:58;;;;;;;15.20;9.70;;;;;;;14.79;68.02;100174.17;220480;1255;140354;-72
2023/05/24 18:13:08;;;;;;;11.20;9.80;;;;;;;14.79;68.26;100177.77;219060;1256;140371;-71
2023/05/24 18:18:12;;;;;;;11.70;8.60;;;;;;;14.81;68.35;100182.48;219654;1256;141425;-70
2023/05/24 18:23:18;;;;;;;13.70;9.00;;;;;;;14.78;68.42;100184.42;217784;1257;140533;-72
2023/05/24 18:28:28;;;;;;;9.60;7.90;;;;;;;14.74;68.54;100184.21;218286;1257;140348;-71
2023/05/24 18:33:42;;;;;;;15.40;9.20;;;;;;;14.70;68.81;100190.12;218007;1260;140134;-70
2023/05/24 18:38:53;;;;;;;11.80;9.00;;;;;;;14.62;68.72;100197.45;217386;1260;141196;-71
2023/05/24 18:44:00;;;;;;;14.70;10.50;;;;;;;14.54;68.92;100203.51;217397;1257;141916;-71
2023/05/24 18:49:14;;;;;;;13.60;8.80;;;;;;;14.47;69.08;100205.08;218607;1256;140500;-71
2023/05/24 18:54:30;;;;;;;8.50;6.80;;;;;;;14.41;69.26;100204.34;217845;1256;140798;-71
2023/05/24 18:59:44;;;;;;;10.20;8.40;;;;;;;14.30;69.60;100208.38;218108;1256;140982;-71
2023/05/24 19:04:56;;;;;;;14.70;9.00;;;;;;;14.24;69.71;100215.73;217761;1257;140515;-70
2023/05/24 19:10:08;;;;;;;12.20;9.70;;;;;;;14.20;69.95;100219.64;218169;1256;140073;-69
2023/05/24 19:15:13;;;;;;;8.00;7.00;;;;;;;14.17;70.20;100224.64;217885;1260;140672;-71
2023/05/24 19:20:18;;;;;;;9.70;8.00;;;;;;;14.12;70.32;100221.93;218416;1256;141131;-70
2023/05/24 19:25:23;;;;;;;12.90;9.00;;;;;;;14.07;70.49;100228.63;218481;1256;140013;-70
2023/05/24 19:30:28;;;;;;;14.40;9.60;;;;;;;14.02;70.72;100233.88;217689;1260;140366;-74
2023/05/24 19:35:33;;;;;;;10.10;8.70;;;;;;;13.97;70.83;100225.59;218212;1256;151940;-71
2023/05/24 19:40:39;;;;;;;12.70;9.70;;;;;;;13.89;70.97;100230.45;218267;1256;140670;-71
2023/05/24 19:45:44;;;;;;;13.40;10.30;;;;;;;13.85;71.12;100225.55;218386;1256;140189;-71
2023/05/24 19:50:49;;;;;;;12.80;8.90;;;;;;;13.82;71.39;100223.84;219267;1256;141625;-73
2023/05/24 19:55:56;;;;;;;9.90;8.40;;;;;;;13.82;71.60;100232.69;220454;1256;141196;-73
2023/05/24 20:01:01;;;;;;;14.60;10.30;;;;;;;13.84;71.70;100233.73;220445;1257;140420;-72
2023/05/24 20:06:05;;;;;;;12.60;10.60;;;;;;;13.81;71.84;100239.75;219709;1256;140875;-71
2023/05/24 20:11:10;;;;;;;16.10;10.80;;;;;;;13.83;71.74;100250.19;220218;1256;140738;-71
2023/05/24 20:16:20;;;;;;;13.50;9.40;;;;;;;13.84;71.75;100256.95;218779;1256;141054;-72
2023/05/24 20:33:51;;;;;;;9.50;8.30;;;;;;;13.81;72.21;100256.63;215733;1296;636917;-72
2023/05/24 20:38:58;;;;;;;11.30;9.50;;;;;;;13.80;72.10;100254.73;216783;1269;139776;-71
2023/05/24 20:44:04;;;;;;;11.50;8.60;;;;;;;13.77;72.38;100253.55;217562;1265;248606;-72
2023/05/24 20:49:11;;;;;;;18.00;11.70;;;;;;;13.75;72.56;100252.47;217401;1266;139185;-69
2023/05/24 20:54:17;;;;;;;14.60;11.70;;;;;;;13.73;72.64;100256.14;216604;1265;138833;-71
2023/05/24 20:59:25;;;;;;;17.70;11.00;;;;;;;13.70;72.68;100249.83;216800;1266;141871;-72
2023/05/24 21:04:31;;;;;;;19.90;10.90;;;;;;;13.66;72.82;100243.69;217425;1266;141919;-72
2023/05/24 21:09:36;;;;;;;13.30;10.50;;;;;;;13.62;73.01;100247.48;217046;1266;140482;-72
2023/05/24 21:14:43;;;;;;;11.20;8.80;;;;;;;13.59;73.16;100244.73;217131;1265;140124;-70
2023/05/24 21:19:49;;;;;;;12.70;10.70;;;;;;;13.56;73.33;100240.83;218382;1260;140510;-72
2023/05/24 21:24:55;;;;;;;13.70;11.10;;;;;;;13.54;73.22;100242.35;217720;1260;140652;-72
2023/05/24 21:30:00;;;;;;;14.40;11.30;;;;;;;13.52;73.60;100246.69;218689;1263;141024;-71
2023/05/24 21:35:05;;;;;;;19.20;10.90;;;;;;;13.52;73.60;100249.75;218451;1262;140244;-71
2023/05/24 21:40:11;;;;;;;12.10;10.70;;;;;;;13.49;73.36;100255.44;218559;1262;141518;-70
2023/05/24 21:45:17;;;;;;;13.00;10.50;;;;;;;13.48;73.74;100256.70;219626;1262;139800;-71
2023/05/24 21:50:21;;;;;;;13.60;11.40;;;;;;;13.45;73.75;100260.41;218568;1262;141880;-71
2023/05/24 21:55:25;;;;;;;18.80;11.30;;;;;;;13.46;74.01;100258.81;219745;1262;140077;-71
2023/05/24 22:00:30;;;;;;;22.60;12.70;;;;;;;13.45;73.80;100252.95;219074;1262;140509;-72
2023/05/24 22:05:35;;;;;;;20.40;12.90;;;;;;;13.42;73.79;100256.13;218874;1262;140837;-71
2023/05/24 22:10:38;;;;;;;13.40;9.70;;;;;;;13.41;74.06;100258.67;219629;1262;140784;-72
2023/05/24 22:15:43;;;;;;;17.60;12.20;;;;;;;13.41;74.18;100269.45;217938;1263;141247;-70
2023/05/24 22:20:49;;;;;;;20.30;11.30;;;;;;;13.39;74.05;100269.46;218235;1262;139827;-73
2023/05/24 22:25:54;;;;;;;19.20;12.30;;;;;;;13.39;74.46;100276.21;218013;1263;140276;-71
2023/05/24 22:30:59;;;;;;;19.60;10.60;;;;;;;13.37;74.27;100280.20;217834;1260;140295;-71
2023/05/24 22:36:04;;;;;;;15.80;12.30;;;;;;;13.34;74.40;100282.65;218125;1263;139542;-68
2023/05/24 22:41:10;;;;;;;14.90;10.10;;;;;;;13.29;74.54;100284.80;217727;1260;139940;-71
2023/05/24 22:46:14;;;;;;;17.10;12.80;;;;;;;13.28;74.89;100283.82;217769;1260;140599;-69
2023/05/24 22:51:20;;;;;;;15.60;12.00;;;;;;;13.26;75.10;100282.34;217348;1260;140375;-71
2023/05/24 22:56:25;;;;;;;18.80;11.70;;;;;;;13.22;75.08;100281.71;218001;1260;140462;-70
2023/05/24 23:01:33;;;;;;;20.50;13.50;;;;;;;13.24;75.09;100282.88;217333;1260;139957;-70
2023/05/24 23:06:40;;;;;;;27.10;12.90;;;;;;;13.26;75.60;100293.41;217729;1259;140289;-71
2023/05/24 23:11:46;;;;;;;15.30;13.10;;;;;;;13.27;75.34;100291.39;217886;1260;140637;-70
2023/05/24 23:16:51;;;;;;;28.70;13.00;;;;;;;13.23;75.48;100293.89;218176;1260;140788;-70